Time;durP1;ratioP1;P1;durP2;ratioP2;P2;SDS_P1;SDS_P2;PMS_P1;PMS_P2;Temp;Humidity;BMP_temperature;BMP_pressure;BME280_temperature;BME280_humidity;BME280_pressure;Samples;Min_cycle;Max_cycle;Signal;HPM_P1;HPM_P2
2022/05/28 00:00:56;;;;;;;6.57;5.22;;;12.60;99.90;;;;;;5038916;28;20068;-65
2022/05/28 00:03:23;;;;;;;9.65;5.15;;;12.30;99.90;;;;;;5037238;28;20030;-65
2022/05/28 00:05:49;;;;;;;7.75;5.10;;;12.20;99.90;;;;;;5036176;28;20093;-65
2022/05/28 00:08:16;;;;;;;9.93;5.55;;;12.20;99.90;;;;;;5037040;28;20083;-66
2022/05/28 00:10:44;;;;;;;10.65;6.00;;;12.10;99.90;;;;;;5034072;28;20033;-65
2022/05/28 00:13:10;;;;;;;9.50;6.25;;;12.40;99.90;;;;;;5048560;28;20546;-66
2022/05/28 00:15:36;;;;;;;12.05;7.20;;;12.80;99.90;;;;;;5037233;28;20132;-65
2022/05/28 00:18:02;;;;;;;13.43;8.40;;;12.80;99.90;;;;;;5037070;28;20128;-65
2022/05/28 00:20:28;;;;;;;11.07;6.20;;;12.90;99.90;;;;;;5037183;28;20116;-64
2022/05/28 00:22:54;;;;;;;13.52;7.57;;;13.40;99.90;;;;;;5036201;28;20512;-65
2022/05/28 00:25:20;;;;;;;10.05;7.03;;;13.70;99.90;;;;;;5033709;28;20037;-65
2022/05/28 00:27:46;;;;;;;13.07;7.55;;;13.50;99.90;;;;;;5038181;28;20022;-65
2022/05/28 00:30:14;;;;;;;15.18;7.40;;;13.50;99.90;;;;;;5037286;28;20387;-64
2022/05/28 00:32:41;;;;;;;11.65;6.85;;;13.60;99.90;;;;;;5036686;28;20049;-65
2022/05/28 00:35:10;;;;;;;10.63;6.18;;;13.80;99.90;;;;;;5035570;28;20033;-65
2022/05/28 00:37:36;;;;;;;16.45;6.78;;;14.10;99.90;;;;;;5033123;28;20021;-65
2022/05/28 00:40:06;;;;;;;12.32;7.07;;;14.10;99.90;;;;;;5037057;28;20056;-66
2022/05/28 00:42:32;;;;;;;11.93;6.15;;;13.80;99.90;;;;;;5037116;28;20034;-66
2022/05/28 00:44:57;;;;;;;12.25;6.95;;;14.30;99.90;;;;;;5034422;28;20044;-66
2022/05/28 00:47:24;;;;;;;11.55;6.55;;;13.90;99.90;;;;;;5036432;28;20034;-65
2022/05/28 00:49:51;;;;;;;13.77;6.82;;;14.10;99.90;;;;;;5034824;28;20129;-66
2022/05/28 00:52:20;;;;;;;10.07;6.32;;;14.10;99.90;;;;;;5033535;28;20025;-65
2022/05/28 00:54:48;;;;;;;8.32;4.90;;;13.80;99.90;;;;;;5038344;28;20029;-65
2022/05/28 00:57:16;;;;;;;12.15;6.75;;;14.00;99.90;;;;;;5035760;28;20025;-65
2022/05/28 00:59:43;;;;;;;8.38;5.63;;;13.90;99.90;;;;;;5036496;28;20025;-65
2022/05/28 01:02:38;;;;;;;11.43;6.88;;;14.30;99.90;;;;;;5036537;28;20031;-65
2022/05/28 01:05:10;;;;;;;11.68;7.15;;;13.90;99.90;;;;;;5011273;28;20123;-65
2022/05/28 01:07:54;;;;;;;9.32;6.22;;;13.50;99.90;;;;;;5011515;28;20058;-65
2022/05/28 01:10:35;;;;;;;12.25;7.18;;;13.60;99.90;;;;;;5010475;28;20045;-64
2022/05/28 01:13:09;;;;;;;11.27;6.90;;;13.50;99.90;;;;;;5007642;28;20022;-64
2022/05/28 01:15:48;;;;;;;11.05;6.55;;;13.60;99.90;;;;;;5011240;28;20061;-65
2022/05/28 01:18:20;;;;;;;8.30;5.80;;;13.70;99.90;;;;;;5010866;28;20022;-64
2022/05/28 01:20:52;;;;;;;11.98;7.40;;;13.80;99.90;;;;;;5011202;28;20049;-65
2022/05/28 01:23:26;;;;;;;11.77;6.47;;;13.80;99.90;;;;;;5010927;28;20038;-65
2022/05/28 01:26:22;;;;;;;14.60;7.80;;;13.70;99.90;;;;;;5010685;28;20038;-65
2022/05/28 01:28:58;;;;;;;9.52;5.78;;;13.60;99.90;;;;;;5010768;28;20096;-65
2022/05/28 01:31:27;;;;;;;11.40;7.35;;;13.60;99.90;;;;;;5010692;28;20448;-65
2022/05/28 01:33:55;;;;;;;10.52;7.28;;;13.60;99.90;;;;;;5011430;28;20041;-66
2022/05/28 01:36:22;;;;;;;10.70;6.57;;;13.30;99.90;;;;;;5010814;28;20033;-66
2022/05/28 01:38:49;;;;;;;15.32;7.38;;;13.50;99.90;;;;;;5010218;28;20104;-65
2022/05/28 01:41:16;;;;;;;11.65;8.05;;;13.30;99.90;;;;;;5014034;28;20049;-65
2022/05/28 01:43:46;;;;;;;12.55;8.00;;;13.00;99.90;;;;;;5047421;28;20109;-65
2022/05/28 01:46:14;;;;;;;11.90;7.28;;;12.90;99.90;;;;;;5033754;28;20030;-65
2022/05/28 01:48:43;;;;;;;14.25;8.57;;;13.40;99.90;;;;;;5037085;28;20065;-66
2022/05/28 01:51:11;;;;;;;14.80;8.23;;;13.20;99.90;;;;;;5035566;28;20059;-65
2022/05/28 01:56:23;;;;;;;11.07;7.10;;;12.80;99.90;;;;;;5035292;28;20041;-65
2022/05/28 01:58:49;;;;;;;11.82;7.63;;;13.00;99.90;;;;;;5033544;28;20553;-65
2022/05/28 02:01:15;;;;;;;16.50;9.30;;;12.70;99.90;;;;;;5033420;28;20426;-65
2022/05/28 02:03:43;;;;;;;12.85;8.75;;;12.50;99.90;;;;;;5035132;28;20026;-65
2022/05/28 02:06:09;;;;;;;13.93;9.25;;;12.60;99.90;;;;;;5035241;28;20057;-66
2022/05/28 02:08:40;;;;;;;16.40;8.52;;;12.80;99.90;;;;;;5034834;28;20055;-66
2022/05/28 02:11:12;;;;;;;13.38;9.57;;;12.60;99.90;;;;;;5034698;28;20494;-66
2022/05/28 02:14:12;;;;;;;12.27;7.65;;;12.60;99.90;;;;;;5031339;28;20030;-64
2022/05/28 02:17:02;;;;;;;12.82;8.85;;;12.90;99.90;;;;;;5017012;28;20026;-65
2022/05/28 02:19:49;;;;;;;11.88;8.23;;;12.50;99.90;;;;;;5030680;28;20499;-65
2022/05/28 02:22:24;;;;;;;13.80;8.68;;;12.30;99.90;;;;;;5043882;28;20433;-66
2022/05/28 02:24:59;;;;;;;13.65;8.50;;;12.40;99.90;;;;;;5035857;28;20037;-65
2022/05/28 02:27:27;;;;;;;13.88;8.60;;;12.40;99.90;;;;;;5033250;28;20029;-65
2022/05/28 02:29:53;;;;;;;13.88;8.73;;;12.40;99.90;;;;;;5034718;28;20026;-66
2022/05/28 02:32:22;;;;;;;11.63;8.70;;;12.20;99.90;;;;;;5033342;28;20025;-65
2022/05/28 02:34:50;;;;;;;11.30;7.90;;;12.10;99.90;;;;;;5032450;28;20039;-65
2022/05/28 02:37:20;;;;;;;11.45;7.90;;;12.00;99.90;;;;;;5031780;28;20040;-66
2022/05/28 02:39:46;;;;;;;13.90;8.00;;;11.90;99.90;;;;;;5036178;28;20076;-65
2022/05/28 02:42:11;;;;;;;8.93;7.93;;;11.80;99.90;;;;;;5033063;28;20017;-65
2022/05/28 02:44:37;;;;;;;10.13;7.53;;;11.70;99.90;;;;;;5034659;28;20029;-65
2022/05/28 02:47:04;;;;;;;12.60;7.93;;;11.80;99.90;;;;;;5033450;28;20558;-65
2022/05/28 02:49:30;;;;;;;8.60;7.47;;;11.70;99.90;;;;;;5014474;28;20026;-66
2022/05/28 02:51:56;;;;;;;11.15;7.80;;;11.60;99.90;;;;;;5036302;28;20017;-65
2022/05/28 02:54:22;;;;;;;10.65;7.57;;;11.50;99.90;;;;;;5034429;28;20029;-66
2022/05/28 02:56:48;;;;;;;12.38;8.00;;;11.40;99.90;;;;;;5034306;28;20512;-65
2022/05/28 02:59:15;;;;;;;10.82;7.30;;;11.40;99.90;;;;;;5034479;28;20171;-65
2022/05/28 03:01:41;;;;;;;8.65;7.65;;;11.40;99.90;;;;;;5031574;28;20115;-66
2022/05/28 03:04:08;;;;;;;8.80;7.97;;;11.30;99.90;;;;;;5034407;28;20390;-66
2022/05/28 03:06:37;;;;;;;9.27;7.30;;;11.30;99.90;;;;;;5035194;28;20456;-66
2022/05/28 03:09:07;;;;;;;10.00;7.65;;;11.20;99.90;;;;;;5033831;28;20448;-66
2022/05/28 03:11:34;;;;;;;10.85;7.97;;;11.30;99.90;;;;;;5032787;28;20441;-65
2022/05/28 03:14:00;;;;;;;9.55;6.90;;;11.20;99.90;;;;;;5033817;28;20405;-65
2022/05/28 03:16:26;;;;;;;9.77;8.30;;;11.20;99.90;;;;;;5030427;28;20032;-64
2022/05/28 03:18:52;;;;;;;8.50;7.60;;;11.40;99.90;;;;;;5036191;28;20552;-65
2022/05/28 03:21:18;;;;;;;10.00;8.05;;;11.40;99.90;;;;;;5032518;28;20042;-66
2022/05/28 03:23:50;;;;;;;12.40;10.65;;;11.20;99.90;;;;;;5033747;28;20478;-66
2022/05/28 03:26:24;;;;;;;12.02;10.45;;;11.20;99.90;;;;;;5033911;28;20128;-65
2022/05/28 03:28:51;;;;;;;10.85;9.75;;;11.10;99.90;;;;;;5032265;28;20045;-65
2022/05/28 03:31:17;;;;;;;11.43;10.10;;;11.00;99.90;;;;;;5031255;28;20048;-65
2022/05/28 03:33:43;;;;;;;11.13;9.10;;;11.10;99.90;;;;;;5035586;28;20039;-66
2022/05/28 03:36:09;;;;;;;10.60;8.68;;;11.20;99.90;;;;;;5037068;28;20112;-66
2022/05/28 03:38:36;;;;;;;10.40;8.48;;;11.20;99.90;;;;;;5037998;28;20045;-64
2022/05/28 03:41:04;;;;;;;8.52;7.57;;;11.10;99.90;;;;;;5037621;28;20398;-65
2022/05/28 03:43:30;;;;;;;8.85;7.70;;;11.00;99.90;;;;;;5049781;28;20487;-65
2022/05/28 03:45:56;;;;;;;8.63;7.47;;;11.10;99.90;;;;;;5039963;28;20438;-65
2022/05/28 03:48:22;;;;;;;9.82;7.60;;;11.00;99.90;;;;;;5037564;28;20435;-65
2022/05/28 03:50:48;;;;;;;8.77;7.35;;;10.90;99.90;;;;;;5037299;28;20156;-65
2022/05/28 03:53:15;;;;;;;7.50;6.70;;;10.90;99.90;;;;;;5037543;28;20100;-65
2022/05/28 03:55:41;;;;;;;13.10;8.02;;;10.90;99.90;;;;;;5034678;28;20033;-64
2022/05/28 03:58:07;;;;;;;8.98;7.63;;;10.90;99.90;;;;;;5036761;28;20037;-65
2022/05/28 04:00:35;;;;;;;10.52;7.32;;;10.80;99.90;;;;;;5037430;28;20057;-65
2022/05/28 04:03:01;;;;;;;8.57;7.68;;;10.70;99.90;;;;;;5037034;28;20030;-65
2022/05/28 04:05:27;;;;;;;9.57;7.25;;;10.70;99.90;;;;;;5037086;28;20501;-65
2022/05/28 04:07:53;;;;;;;9.15;7.80;;;10.70;99.90;;;;;;5036524;28;20025;-65
2022/05/28 04:10:20;;;;;;;10.10;7.30;;;10.70;99.90;;;;;;5034315;28;20427;-65
2022/05/28 04:12:45;;;;;;;9.27;7.18;;;11.10;99.90;;;;;;5039225;28;20030;-65
2022/05/28 04:15:13;;;;;;;8.00;6.95;;;11.00;99.90;;;;;;5037227;28;20026;-65
2022/05/28 04:17:39;;;;;;;7.90;7.07;;;10.90;99.90;;;;;;5036937;28;20037;-65
2022/05/28 04:20:07;;;;;;;8.02;6.55;;;10.70;99.90;;;;;;5035393;28;20037;-65
2022/05/28 04:22:32;;;;;;;7.38;6.57;;;10.70;99.90;;;;;;5033434;28;20026;-65
2022/05/28 04:24:58;;;;;;;7.53;6.15;;;10.60;99.90;;;;;;5038704;28;20084;-64
2022/05/28 04:27:24;;;;;;;8.45;7.10;;;10.70;99.90;;;;;;5036832;28;20486;-65
2022/05/28 04:29:50;;;;;;;9.73;6.97;;;10.60;99.90;;;;;;5035579;28;20447;-64
2022/05/28 04:32:15;;;;;;;9.60;6.78;;;10.60;99.90;;;;;;5036929;28;20112;-64
2022/05/28 04:34:41;;;;;;;8.00;6.32;;;10.70;99.90;;;;;;5033826;28;20029;-65
2022/05/28 04:37:07;;;;;;;7.70;6.93;;;10.60;99.90;;;;;;5036676;28;20052;-65
2022/05/28 04:39:33;;;;;;;8.90;6.97;;;10.50;99.90;;;;;;5036264;28;20538;-64
2022/05/28 04:41:58;;;;;;;8.30;6.72;;;10.60;99.90;;;;;;5036505;28;20045;-65
2022/05/28 04:44:24;;;;;;;7.55;6.72;;;10.70;99.90;;;;;;5036603;28;20053;-63
2022/05/28 04:46:50;;;;;;;7.13;6.20;;;10.80;99.90;;;;;;5032936;28;20038;-64
2022/05/28 04:49:16;;;;;;;7.53;6.20;;;10.70;99.90;;;;;;5048129;28;20056;-65
2022/05/28 04:51:42;;;;;;;9.50;6.13;;;10.70;99.90;;;;;;5038610;28;20026;-64
2022/05/28 04:54:08;;;;;;;7.65;6.32;;;10.70;99.90;;;;;;5036536;28;20068;-65
2022/05/28 04:56:33;;;;;;;8.30;6.30;;;10.90;99.90;;;;;;5036406;28;20406;-64
2022/05/28 04:58:59;;;;;;;9.60;6.40;;;10.90;99.90;;;;;;5036131;28;20129;-65
2022/05/28 05:01:25;;;;;;;7.65;6.50;;;10.90;99.90;;;;;;5032198;28;20037;-65
2022/05/28 05:03:51;;;;;;;8.32;6.28;;;10.90;99.90;;;;;;5038300;28;20045;-64
2022/05/28 05:06:17;;;;;;;9.55;6.13;;;11.00;99.90;;;;;;5036363;28;20096;-65
2022/05/28 05:08:44;;;;;;;9.52;8.13;;;11.10;99.90;;;;;;5036178;28;20101;-65
2022/05/28 05:11:10;;;;;;;10.70;9.27;;;11.20;99.90;;;;;;5036202;28;20445;-65
2022/05/28 05:13:36;;;;;;;11.68;10.48;;;11.40;99.90;;;;;;5032796;28;20029;-65
2022/05/28 05:16:10;;;;;;;10.00;8.95;;;11.50;99.90;;;;;;5037066;28;20112;-65
2022/05/28 05:18:36;;;;;;;9.02;8.13;;;11.80;99.90;;;;;;5035476;28;20029;-65
2022/05/28 05:21:03;;;;;;;7.53;6.18;;;12.10;99.90;;;;;;5035755;28;20041;-65
2022/05/28 05:23:28;;;;;;;6.63;5.30;;;12.60;99.90;;;;;;5036007;28;20033;-65
2022/05/28 05:25:54;;;;;;;5.95;5.00;;;12.80;99.90;;;;;;5034965;28;20500;-65
2022/05/28 05:28:20;;;;;;;4.20;3.65;;;13.60;99.90;;;;;;5032491;28;20021;-65
2022/05/28 05:30:45;;;;;;;4.50;3.10;;;15.00;99.90;;;;;;5037990;28;20055;-65
2022/05/28 05:33:11;;;;;;;2.90;2.70;;;15.60;99.90;;;;;;5035541;28;20356;-66
2022/05/28 05:35:37;;;;;;;5.82;3.00;;;16.30;99.90;;;;;;5035855;28;20029;-64
2022/05/28 05:38:05;;;;;;;5.35;2.65;;;17.20;99.90;;;;;;5035410;28;20060;-63
2022/05/28 05:40:37;;;;;;;3.53;2.63;;;17.70;99.90;;;;;;5031486;28;20113;-64
2022/05/28 05:43:03;;;;;;;3.67;2.67;;;18.10;99.90;;;;;;5036461;28;20034;-64
2022/05/28 05:45:29;;;;;;;3.08;2.30;;;18.20;99.90;;;;;;5036134;28;20034;-64
2022/05/28 05:47:55;;;;;;;3.15;2.03;;;19.20;99.90;;;;;;5033786;28;20071;-64
2022/05/28 05:50:22;;;;;;;2.42;2.20;;;20.50;99.90;;;;;;5035438;28;20040;-64
2022/05/28 05:52:48;;;;;;;2.50;2.20;;;21.30;99.90;;;;;;5030412;28;20032;-65
2022/05/28 05:55:14;;;;;;;3.78;2.00;;;23.30;99.90;;;;;;5034092;28;20395;-63
2022/05/28 05:57:39;;;;;;;5.18;2.55;;;23.90;99.90;;;;;;5033612;28;20025;-64
2022/05/28 06:00:06;;;;;;;2.88;1.80;;;23.80;99.90;;;;;;5032644;28;20033;-63
2022/05/28 06:02:32;;;;;;;1.85;1.73;;;24.50;99.90;;;;;;5032969;28;20087;-63
2022/05/28 06:04:58;;;;;;;2.47;1.90;;;23.50;99.90;;;;;;5031906;28;20017;-64
2022/05/28 06:07:24;;;;;;;1.88;1.77;;;23.70;99.90;;;;;;5040134;28;20406;-66
2022/05/28 06:09:50;;;;;;;2.53;1.90;;;22.20;99.90;;;;;;5041444;28;20022;-65
2022/05/28 06:12:16;;;;;;;2.83;1.77;;;22.60;99.90;;;;;;5039679;28;20043;-65
2022/05/28 06:14:41;;;;;;;4.68;1.85;;;23.60;99.90;;;;;;5038329;28;20409;-64
2022/05/28 06:17:07;;;;;;;2.15;1.60;;;23.60;99.90;;;;;;5038181;28;20025;-65
2022/05/28 06:19:34;;;;;;;2.35;1.63;;;24.10;99.90;;;;;;5038353;28;20022;-65
2022/05/28 06:22:00;;;;;;;2.78;1.80;;;23.60;99.90;;;;;;5042428;28;20029;-64
2022/05/28 06:24:27;;;;;;;1.67;1.40;;;23.40;99.90;;;;;;5059667;28;20033;-65
2022/05/28 06:26:53;;;;;;;2.90;1.60;;;24.60;99.90;;;;;;5027638;28;20029;-64
2022/05/28 06:29:19;;;;;;;2.03;1.42;;;25.40;99.90;;;;;;5024359;28;20038;-65
2022/05/28 06:31:44;;;;;;;7.20;1.90;;;27.10;99.90;;;;;;5027566;28;20037;-65
2022/05/28 06:34:10;;;;;;;2.35;1.55;;;26.50;99.90;;;;;;5013744;28;20073;-66
2022/05/28 06:36:36;;;;;;;2.63;1.60;;;25.00;99.90;;;;;;5029115;28;20092;-65
2022/05/28 06:39:02;;;;;;;5.45;1.83;;;25.40;99.90;;;;;;5025432;28;20071;-66
2022/05/28 06:41:27;;;;;;;3.80;1.55;;;25.80;99.90;;;;;;5025251;28;20490;-67
2022/05/28 06:43:53;;;;;;;2.20;1.52;;;26.60;99.90;;;;;;5023045;28;20025;-67
2022/05/28 06:46:19;;;;;;;3.40;1.50;;;25.50;99.90;;;;;;5022318;28;20083;-67
2022/05/28 06:48:45;;;;;;;2.17;1.50;;;26.80;99.90;;;;;;5026028;28;20104;-67
2022/05/28 06:51:12;;;;;;;1.65;1.38;;;25.70;99.90;;;;;;5025701;28;20497;-66
2022/05/28 06:53:42;;;;;;;1.75;1.40;;;28.00;99.90;;;;;;5025388;28;20029;-66
2022/05/28 06:56:09;;;;;;;2.35;1.40;;;26.70;99.90;;;;;;5025157;28;20520;-66
2022/05/28 06:58:36;;;;;;;2.20;1.40;;;27.80;99.90;;;;;;5028425;28;20064;-67
2022/05/28 07:01:03;;;;;;;2.03;1.60;;;29.40;99.10;;;;;;5013856;28;20042;-67
2022/05/28 07:03:30;;;;;;;2.50;1.40;;;28.30;99.50;;;;;;5027658;28;20117;-67
2022/05/28 07:05:56;;;;;;;2.65;1.60;;;29.60;98.50;;;;;;5025022;28;20041;-66
2022/05/28 07:08:23;;;;;;;2.28;1.30;;;30.00;98.30;;;;;;5030547;28;20022;-66
2022/05/28 07:10:52;;;;;;;3.08;1.48;;;27.60;99.90;;;;;;5025219;28;20030;-67
2022/05/28 07:13:20;;;;;;;2.30;1.27;;;26.40;99.90;;;;;;5029300;28;20028;-67
2022/05/28 07:15:46;;;;;;;2.22;1.50;;;28.60;99.90;;;;;;5027476;28;20086;-67
2022/05/28 07:18:13;;;;;;;3.20;1.42;;;28.60;98.60;;;;;;5031986;28;20022;-67
2022/05/28 07:20:39;;;;;;;2.08;1.20;;;26.20;99.90;;;;;;5031604;28;20029;-67
2022/05/28 07:23:13;;;;;;;2.15;1.20;;;25.40;99.90;;;;;;5034578;28;20162;-67
2022/05/28 07:25:40;;;;;;;3.13;1.20;;;22.60;99.90;;;;;;5029107;28;20029;-67
2022/05/28 07:28:25;;;;;;;1.60;1.00;;;22.20;99.90;;;;;;5031202;28;20120;-66
2022/05/28 07:30:53;;;;;;;2.55;1.30;;;22.80;99.90;;;;;;5027153;28;20444;-67
2022/05/28 07:33:19;;;;;;;2.85;1.08;;;23.30;99.90;;;;;;5023710;28;20112;-67
2022/05/28 07:35:46;;;;;;;2.15;1.30;;;24.70;99.90;;;;;;5025417;28;20593;-67
2022/05/28 07:38:12;;;;;;;2.08;0.90;;;25.90;99.90;;;;;;5024035;28;20037;-67
2022/05/28 07:40:38;;;;;;;1.90;1.08;;;26.10;99.90;;;;;;5019781;28;20037;-67
2022/05/28 07:43:04;;;;;;;1.10;1.00;;;25.70;99.90;;;;;;5028499;28;20029;-67
2022/05/28 07:45:38;;;;;;;3.35;1.10;;;26.40;99.90;;;;;;5034398;28;20033;-67
2022/05/28 07:48:04;;;;;;;1.48;1.20;;;26.00;99.90;;;;;;5030251;28;20108;-67
2022/05/28 07:50:29;;;;;;;1.45;1.08;;;25.60;99.90;;;;;;5036887;28;20160;-67
2022/05/28 07:52:57;;;;;;;2.47;1.20;;;27.20;99.90;;;;;;5032692;28;20021;-67
2022/05/28 07:55:23;;;;;;;1.52;1.05;;;28.60;98.70;;;;;;5034770;28;20109;-66
2022/05/28 07:57:49;;;;;;;3.25;1.17;;;26.60;99.90;;;;;;5033133;28;20040;-67
2022/05/28 08:00:15;;;;;;;2.63;1.20;;;29.40;97.70;;;;;;5031314;28;20493;-67
2022/05/28 08:02:41;;;;;;;2.15;1.10;;;27.60;98.90;;;;;;5031544;28;20026;-67
2022/05/28 08:05:08;;;;;;;3.22;1.00;;;29.10;97.20;;;;;;5031293;28;20186;-66
2022/05/28 08:07:33;;;;;;;3.05;1.00;;;29.10;96.90;;;;;;5035357;28;20088;-67
2022/05/28 08:09:59;;;;;;;2.45;1.20;;;28.70;97.70;;;;;;5033660;28;20030;-67
2022/05/28 08:12:25;;;;;;;2.50;1.35;;;29.50;97.10;;;;;;5030846;28;20095;-65
2022/05/28 08:14:51;;;;;;;1.55;1.02;;;27.80;97.30;;;;;;5030653;28;20021;-65
2022/05/28 08:17:17;;;;;;;3.92;1.30;;;27.60;97.00;;;;;;5031780;28;20041;-66
2022/05/28 08:19:44;;;;;;;2.05;1.38;;;27.10;97.40;;;;;;5033333;28;20013;-65
2022/05/28 08:24:54;;;;;;;1.60;1.00;;;26.40;99.10;;;;;;5029488;28;20072;-66
2022/05/28 08:27:19;;;;;;;2.15;1.35;;;28.20;97.00;;;;;;5032418;28;20042;-66
2022/05/28 08:29:45;;;;;;;2.08;1.20;;;29.50;95.60;;;;;;5025757;28;20022;-66
2022/05/28 08:32:16;;;;;;;2.13;1.30;;;27.30;97.00;;;;;;5017766;28;20034;-65
2022/05/28 08:34:43;;;;;;;2.50;1.25;;;27.40;96.90;;;;;;5031049;28;20029;-63
2022/05/28 08:37:11;;;;;;;3.33;1.20;;;28.40;96.20;;;;;;5029704;28;20022;-64
2022/05/28 08:39:37;;;;;;;2.00;1.05;;;27.30;97.20;;;;;;5019665;28;20088;-65
2022/05/28 08:42:03;;;;;;;2.67;1.00;;;27.10;97.20;;;;;;5019192;28;20034;-62
2022/05/28 08:44:40;;;;;;;3.13;1.30;;;28.40;96.00;;;;;;5021365;28;20029;-64
2022/05/28 08:47:21;;;;;;;1.50;1.10;;;28.10;96.20;;;;;;5027341;28;20384;-64
2022/05/28 08:49:50;;;;;;;1.65;1.20;;;28.00;96.60;;;;;;5033729;28;20030;-64
2022/05/28 08:52:23;;;;;;;1.55;0.95;;;30.20;94.90;;;;;;5016875;28;20041;-66
2022/05/28 08:54:57;;;;;;;2.03;1.02;;;28.80;95.40;;;;;;5028390;28;20025;-65
2022/05/28 08:57:58;;;;;;;1.65;0.90;;;31.20;93.60;;;;;;5031131;28;20033;-65
2022/05/28 09:00:47;;;;;;;2.38;1.10;;;31.40;93.50;;;;;;5035959;28;20040;-64
2022/05/28 09:03:44;;;;;;;3.65;1.00;;;31.20;93.50;;;;;;5036391;28;20099;-64
2022/05/28 09:06:31;;;;;;;1.67;1.00;;;30.30;94.00;;;;;;5036251;28;20021;-65
2022/05/28 09:08:56;;;;;;;2.63;1.20;;;28.90;94.60;;;;;;5034730;28;20030;-64
2022/05/28 09:11:38;;;;;;;2.35;1.00;;;30.50;93.80;;;;;;5035771;28;20082;-65
2022/05/28 09:14:27;;;;;;;1.63;1.05;;;28.90;94.50;;;;;;5036138;28;20017;-64
2022/05/28 09:17:07;;;;;;;2.28;1.00;;;27.50;96.10;;;;;;5021678;28;20466;-64
2022/05/28 09:19:41;;;;;;;1.35;1.00;;;27.20;95.00;;;;;;5015679;28;20116;-65
2022/05/28 09:22:06;;;;;;;;;;;27.20;95.50;;;;;;5032922;28;20045;-64
2022/05/28 09:24:33;;;;;;;1.52;1.10;;;28.50;93.70;;;;;;5031750;28;20297;-65
2022/05/28 09:27:17;;;;;;;2.97;1.02;;;29.00;94.90;;;;;;5036025;28;20017;-64
2022/05/28 09:30:02;;;;;;;1.40;1.25;;;29.10;94.50;;;;;;5036330;28;20036;-65
2022/05/28 09:32:45;;;;;;;3.53;1.00;;;28.90;94.60;;;;;;5035033;28;20037;-65
2022/05/28 09:35:20;;;;;;;1.48;1.05;;;31.20;92.70;;;;;;5034434;28;20036;-65
2022/05/28 09:38:25;;;;;;;1.10;1.00;;;34.00;90.70;;;;;;5033005;28;20033;-65
2022/05/28 09:40:52;;;;;;;3.25;1.25;;;28.70;93.30;;;;;;5020217;28;20041;-65
2022/05/28 09:43:42;;;;;;;3.58;1.35;;;27.40;95.60;;;;;;5032827;28;20486;-65
2022/05/28 09:46:21;;;;;;;2.92;1.20;;;26.30;95.80;;;;;;5045287;28;20028;-65
2022/05/28 09:48:58;;;;;;;1.42;1.08;;;27.10;95.60;;;;;;5035884;28;20028;-66
2022/05/28 09:51:27;;;;;;;1.60;1.02;;;25.60;97.50;;;;;;5035228;28;20037;-66
2022/05/28 09:54:16;;;;;;;2.60;1.20;;;24.40;98.40;;;;;;5035250;28;20457;-64
2022/05/28 09:57:01;;;;;;;1.85;1.10;;;24.80;98.10;;;;;;5035307;28;20406;-66
2022/05/28 09:59:35;;;;;;;1.20;1.00;;;25.20;97.80;;;;;;5034553;28;20494;-66
2022/05/28 10:02:20;;;;;;;1.20;1.10;;;26.40;98.20;;;;;;5034645;28;20059;-65
2022/05/28 10:05:11;;;;;;;2.90;1.20;;;25.80;98.60;;;;;;5018858;28;20079;-65
2022/05/28 10:07:49;;;;;;;1.73;1.10;;;25.60;97.70;;;;;;5016416;28;20061;-65
2022/05/28 10:10:21;;;;;;;4.15;1.35;;;26.10;97.50;;;;;;5033168;28;20359;-65
2022/05/28 10:12:47;;;;;;;2.42;1.20;;;26.50;97.30;;;;;;5035242;28;20036;-66
2022/05/28 10:15:14;;;;;;;2.80;0.98;;;26.00;97.80;;;;;;5033602;28;20021;-65
2022/05/28 10:17:55;;;;;;;2.38;1.10;;;25.70;96.90;;;;;;5034979;28;20047;-65
2022/05/28 10:20:21;;;;;;;1.50;1.00;;;25.90;96.70;;;;;;5033356;28;20033;-66
2022/05/28 10:22:50;;;;;;;2.97;1.17;;;25.40;97.10;;;;;;5031468;28;20037;-66
2022/05/28 10:25:37;;;;;;;3.65;1.00;;;26.70;96.70;;;;;;5033252;28;20030;-66
2022/05/28 10:28:04;;;;;;;1.88;1.15;;;25.90;96.50;;;;;;5048190;28;20033;-66
2022/05/28 10:30:35;;;;;;;3.70;1.00;;;25.80;96.00;;;;;;5034921;28;20029;-65
2022/05/28 10:33:19;;;;;;;3.20;1.10;;;25.30;95.50;;;;;;5034550;28;20117;-65
2022/05/28 10:35:46;;;;;;;1.83;1.10;;;24.90;95.50;;;;;;5028946;28;20096;-66
2022/05/28 10:38:22;;;;;;;2.90;1.10;;;26.30;95.20;;;;;;5029182;28;20103;-65
2022/05/28 10:40:52;;;;;;;3.00;1.30;;;26.30;94.70;;;;;;5031975;28;20034;-64
2022/05/28 10:43:31;;;;;;;1.73;1.10;;;25.80;95.20;;;;;;5031005;28;20068;-66
2022/05/28 10:46:12;;;;;;;1.20;0.98;;;25.80;94.00;;;;;;5036336;28;20467;-65
2022/05/28 10:48:50;;;;;;;1.10;1.00;;;25.30;95.00;;;;;;5035061;28;20091;-66
2022/05/28 10:51:33;;;;;;;6.25;1.10;;;25.60;95.10;;;;;;5033914;28;20029;-65
2022/05/28 10:54:13;;;;;;;1.27;1.10;;;25.60;95.00;;;;;;5032844;28;20116;-65
2022/05/28 10:56:55;;;;;;;3.88;1.00;;;25.50;93.80;;;;;;5034291;28;20347;-65
2022/05/28 10:59:49;;;;;;;3.83;1.30;;;25.70;94.70;;;;;;5034244;28;20036;-65
2022/05/28 11:02:30;;;;;;;1.10;1.00;;;24.90;94.10;;;;;;5034101;28;20140;-65
2022/05/28 11:05:23;;;;;;;1.33;1.10;;;26.00;93.80;;;;;;5031307;28;20104;-65
2022/05/28 11:08:11;;;;;;;1.08;0.90;;;25.10;93.80;;;;;;5018150;28;20034;-65
2022/05/28 11:11:12;;;;;;;3.05;0.98;;;25.20;93.10;;;;;;5015547;28;20029;-65
2022/05/28 11:13:57;;;;;;;1.20;0.90;;;25.60;93.40;;;;;;5015677;28;20449;-65
2022/05/28 11:17:07;;;;;;;2.13;1.15;;;25.40;92.90;;;;;;5030686;28;20030;-66
2022/05/28 11:19:38;;;;;;;1.95;1.10;;;26.00;92.00;;;;;;4993606;28;20057;-66
2022/05/28 11:22:19;;;;;;;1.10;0.93;;;25.80;93.00;;;;;;5005407;28;20135;-64
2022/05/28 11:25:04;;;;;;;2.42;0.90;;;25.70;92.90;;;;;;5008602;28;20571;-66
2022/05/28 11:27:46;;;;;;;1.10;0.90;;;26.60;92.30;;;;;;5007270;28;20060;-65
2022/05/28 11:30:33;;;;;;;1.42;1.10;;;26.30;92.40;;;;;;5007102;28;20108;-64
2022/05/28 11:33:25;;;;;;;1.25;1.10;;;26.00;92.70;;;;;;5007167;28;20026;-64
2022/05/28 11:36:03;;;;;;;1.63;0.93;;;25.50;92.10;;;;;;4994862;28;20046;-64
2022/05/28 11:39:02;;;;;;;1.15;1.00;;;25.20;92.60;;;;;;5007008;28;20046;-64
2022/05/28 11:41:34;;;;;;;3.13;1.10;;;25.40;92.40;;;;;;5006619;28;20065;-64
2022/05/28 11:44:15;;;;;;;1.40;1.00;;;25.90;92.60;;;;;;5007144;28;20041;-64
2022/05/28 11:46:43;;;;;;;2.15;1.10;;;26.00;91.70;;;;;;5006874;28;20040;-65
2022/05/28 11:52:54;;;;;;;2.45;0.90;;;25.60;90.50;;;;;;4969138;28;20187;-65
2022/05/28 11:55:26;;;;;;;2.95;1.00;;;25.80;90.70;;;;;;4969471;28;20040;-64
2022/05/28 11:57:52;;;;;;;1.63;1.00;;;25.50;91.80;;;;;;4973134;28;20031;-64
2022/05/28 12:00:19;;;;;;;1.10;1.00;;;25.80;91.90;;;;;;4972412;28;20034;-65
2022/05/28 12:03:10;;;;;;;5.43;1.10;;;26.10;91.10;;;;;;4972260;28;20030;-65
2022/05/28 12:05:41;;;;;;;1.58;1.02;;;25.40;91.20;;;;;;4970705;28;20109;-64
2022/05/28 12:08:17;;;;;;;1.10;0.88;;;25.10;91.80;;;;;;4971320;28;20038;-64
2022/05/28 12:10:51;;;;;;;1.73;0.98;;;25.20;91.50;;;;;;4971403;28;20032;-65
2022/05/28 12:13:44;;;;;;;1.15;0.88;;;25.50;91.50;;;;;;4956820;28;20023;-63
2022/05/28 12:16:22;;;;;;;2.15;1.00;;;25.10;90.80;;;;;;4972481;28;20033;-65
2022/05/28 12:19:06;;;;;;;1.92;1.00;;;25.60;91.40;;;;;;4972889;28;20035;-66
2022/05/28 12:21:35;;;;;;;1.80;1.00;;;25.80;90.40;;;;;;4972650;28;20072;-64
2022/05/28 12:24:28;;;;;;;3.63;1.10;;;25.30;91.00;;;;;;4971277;28;20647;-66
2022/05/28 12:27:12;;;;;;;1.17;1.08;;;25.80;90.70;;;;;;4979658;28;20057;-66
2022/05/28 12:30:01;;;;;;;1.60;1.00;;;25.60;90.60;;;;;;5032518;28;20397;-66
2022/05/28 12:32:43;;;;;;;1.10;1.00;;;26.00;89.20;;;;;;5031452;28;20034;-65
2022/05/28 12:35:30;;;;;;;1.80;0.90;;;25.70;88.80;;;;;;5030775;28;20040;-65
2022/05/28 12:38:18;;;;;;;2.33;1.10;;;26.20;89.70;;;;;;5032832;28;20048;-66
2022/05/28 12:40:54;;;;;;;2.22;0.90;;;26.20;90.10;;;;;;5019496;28;20033;-65
2022/05/28 12:43:30;;;;;;;1.75;0.75;;;25.80;89.50;;;;;;5033614;28;20029;-65
2022/05/28 12:45:58;;;;;;;1.15;1.00;;;25.90;89.50;;;;;;5037537;28;20014;-65
2022/05/28 12:48:30;;;;;;;1.27;0.90;;;26.70;87.80;;;;;;5035555;28;20486;-65
2022/05/28 12:51:14;;;;;;;1.27;0.93;;;26.60;89.40;;;;;;5035530;28;20033;-65
2022/05/28 12:54:03;;;;;;;1.35;1.15;;;26.40;88.90;;;;;;5036686;28;20022;-64
2022/05/28 12:56:35;;;;;;;2.15;1.00;;;26.40;90.20;;;;;;5036460;28;20426;-65
2022/05/28 12:59:14;;;;;;;1.02;0.90;;;26.20;91.00;;;;;;5035523;28;20021;-64
2022/05/28 13:01:57;;;;;;;3.15;1.27;;;26.20;85.80;;;;;;5016376;28;20034;-64
2022/05/28 13:04:28;;;;;;;1.40;0.98;;;26.10;85.50;;;;;;5031889;28;20061;-64
2022/05/28 13:06:56;;;;;;;1.58;1.00;;;26.50;88.90;;;;;;5037241;28;20029;-65
2022/05/28 13:09:28;;;;;;;2.28;1.10;;;25.90;88.40;;;;;;5036116;28;20402;-66
2022/05/28 13:12:12;;;;;;;2.42;1.00;;;26.00;90.60;;;;;;5036567;28;20036;-65
2022/05/28 13:15:14;;;;;;;1.20;1.00;;;26.40;89.40;;;;;;5035630;28;20406;-65
2022/05/28 13:18:16;;;;;;;1.10;0.90;;;26.40;87.90;;;;;;5036177;28;20032;-64